createdAt,value
2022-11-29T00:01:38.618Z,65.30
2022-11-29T00:04:05.883Z,65.30
2022-11-29T00:06:35.096Z,65.30
2022-11-29T00:09:07.011Z,65.40
2022-11-29T00:11:54.972Z,65.30
2022-11-29T00:14:23.945Z,65.30
2022-11-29T00:16:53.203Z,65.50
2022-11-29T00:19:20.984Z,65.50
2022-11-29T00:21:47.952Z,65.40
2022-11-29T00:24:15.287Z,65.30
2022-11-29T00:26:42.312Z,65.40
2022-11-29T00:29:12.272Z,65.50
2022-11-29T00:31:40.802Z,65.60
2022-11-29T00:34:08.312Z,65.60
2022-11-29T00:36:35.844Z,65.80
2022-11-29T00:39:04.960Z,65.80
2022-11-29T00:41:33.362Z,65.90
2022-11-29T00:44:00.742Z,66.00
2022-11-29T00:46:27.824Z,65.90
2022-11-29T00:48:54.769Z,65.80
2022-11-29T00:51:23.178Z,65.80
2022-11-29T00:53:50.733Z,65.90
2022-11-29T00:56:18.183Z,65.90
2022-11-29T00:58:45.335Z,66.00
2022-11-29T01:01:13.380Z,65.80
2022-11-29T01:03:41.035Z,65.80
2022-11-29T01:06:11.122Z,65.70
2022-11-29T01:08:39.028Z,65.60
2022-11-29T01:11:14.185Z,65.70
2022-11-29T01:13:42.008Z,65.70
2022-11-29T01:16:09.373Z,65.60
2022-11-29T01:18:37.408Z,65.60
2022-11-29T01:21:11.519Z,65.60
2022-11-29T01:23:39.374Z,65.50
2022-11-29T01:26:15.647Z,65.50
2022-11-29T01:28:45.159Z,65.50
2022-11-29T01:31:15.612Z,65.50
2022-11-29T01:33:42.752Z,65.50
2022-11-29T01:36:10.722Z,65.50
2022-11-29T01:38:37.720Z,65.50
2022-11-29T01:41:14.708Z,65.40
2022-11-29T01:44:13.728Z,65.40
2022-11-29T01:46:46.173Z,65.50
2022-11-29T01:49:20.759Z,65.40
2022-11-29T01:51:55.647Z,65.30
2022-11-29T01:54:23.110Z,65.30
2022-11-29T01:56:51.924Z,65.40
2022-11-29T01:59:29.988Z,65.50
2022-11-29T02:02:07.089Z,65.30
2022-11-29T02:04:36.406Z,65.50
2022-11-29T02:07:04.126Z,65.50
2022-11-29T02:09:31.252Z,65.60
2022-11-29T02:12:04.229Z,65.60
2022-11-29T02:14:52.548Z,65.70
2022-11-29T02:17:34.573Z,65.80
2022-11-29T02:20:23.200Z,65.80
2022-11-29T02:23:00.822Z,65.90
2022-11-29T02:25:52.829Z,66.00
2022-11-29T02:28:38.572Z,66.00
2022-11-29T02:31:24.323Z,66.00
2022-11-29T02:34:33.702Z,66.00
2022-11-29T02:37:14.253Z,66.20
2022-11-29T02:39:54.217Z,66.10
2022-11-29T02:42:55.771Z,66.00
2022-11-29T02:45:42.020Z,66.20
2022-11-29T02:48:36.747Z,66.20
2022-11-29T02:51:11.836Z,66.10
2022-11-29T02:53:51.195Z,66.10
2022-11-29T02:56:39.853Z,66.10
2022-11-29T02:59:44.608Z,66.20
2022-11-29T03:02:21.500Z,66.30
2022-11-29T03:04:54.380Z,66.40
2022-11-29T03:07:45.216Z,66.40
2022-11-29T03:10:20.721Z,66.70
2022-11-29T03:12:52.052Z,66.80
2022-11-29T03:15:39.945Z,67.00
2022-11-29T03:18:26.682Z,67.20
2022-11-29T03:21:18.356Z,67.30
2022-11-29T03:24:02.904Z,67.70
2022-11-29T03:26:49.496Z,67.80
2022-11-29T03:29:28.464Z,67.80
2022-11-29T03:32:17.615Z,68.30
2022-11-29T03:35:05.712Z,68.50
2022-11-29T03:38:11.332Z,68.50
2022-11-29T03:41:05.791Z,68.70
2022-11-29T03:43:51.700Z,68.70
2022-11-29T03:46:25.573Z,69.10
2022-11-29T03:48:59.957Z,69.20
2022-11-29T03:51:43.102Z,69.30
2022-11-29T03:54:16.080Z,69.60
2022-11-29T03:56:43.391Z,70.10
2022-11-29T03:59:33.222Z,70.10
2022-11-29T04:02:09.859Z,70.10
2022-11-29T04:05:03.586Z,70.10
2022-11-29T04:07:40.904Z,70.10
2022-11-29T04:10:30.769Z,70.10
2022-11-29T04:13:12.852Z,70.10
2022-11-29T04:15:45.854Z,70.30
2022-11-29T04:18:22.150Z,70.50
2022-11-29T04:20:52.237Z,70.40
2022-11-29T04:23:33.056Z,70.50
2022-11-29T04:26:20.674Z,70.50
2022-11-29T04:28:56.731Z,70.90
2022-11-29T04:31:33.947Z,71.30
2022-11-29T04:34:23.556Z,71.20
2022-11-29T04:37:14.835Z,71.00
2022-11-29T04:40:26.344Z,71.20
2022-11-29T04:43:12.162Z,71.50
2022-11-29T04:45:45.151Z,71.50
2022-11-29T04:48:37.525Z,71.50
2022-11-29T04:51:23.761Z,71.30
2022-11-29T04:54:40.262Z,71.50
2022-11-29T04:57:39.493Z,71.50
2022-11-29T05:00:10.130Z,71.90
2022-11-29T05:02:54.217Z,71.70
2022-11-29T05:05:44.705Z,71.90
2022-11-29T05:08:45.619Z,71.80
2022-11-29T05:11:27.549Z,71.90
2022-11-29T05:14:01.935Z,71.70
2022-11-29T05:16:53.805Z,71.70
2022-11-29T05:19:56.184Z,71.70
2022-11-29T05:22:31.708Z,71.50
2022-11-29T05:25:16.849Z,71.70
2022-11-29T05:27:58.628Z,71.30
2022-11-29T05:30:43.755Z,71.40
2022-11-29T05:33:36.042Z,71.30
2022-11-29T05:36:24.051Z,71.50
2022-11-29T05:39:19.168Z,71.40
2022-11-29T05:42:14.983Z,71.30
2022-11-29T05:44:49.068Z,71.20
2022-11-29T05:47:31.181Z,71.10
2022-11-29T05:50:10.743Z,71.00
2022-11-29T05:53:11.611Z,71.00
2022-11-29T05:56:01.734Z,70.90
2022-11-29T05:58:50.362Z,70.80
2022-11-29T06:01:25.013Z,71.00
2022-11-29T06:04:15.378Z,70.90
2022-11-29T06:07:04.501Z,70.60
2022-11-29T06:09:43.343Z,70.70
2022-11-29T06:12:20.889Z,70.80
2022-11-29T06:14:57.498Z,70.60
2022-11-29T06:17:56.092Z,70.50
2022-11-29T06:20:35.631Z,70.40
2022-11-29T06:23:05.803Z,70.50
2022-11-29T06:26:04.265Z,70.40
2022-11-29T06:28:55.901Z,70.50
2022-11-29T06:31:39.640Z,70.50
2022-11-29T06:34:09.985Z,70.30
2022-11-29T06:36:46.333Z,70.30
2022-11-29T06:39:14.006Z,70.20
2022-11-29T06:41:40.994Z,70.30
2022-11-29T06:44:08.808Z,70.40
2022-11-29T06:46:46.433Z,70.40
2022-11-29T06:49:23.520Z,70.30
2022-11-29T06:52:43.616Z,70.20
2022-11-29T06:55:23.114Z,70.10
2022-11-29T06:57:52.890Z,70.00
2022-11-29T07:00:27.119Z,70.00
2022-11-29T07:03:28.918Z,70.00
2022-11-29T07:05:57.400Z,70.00
2022-11-29T07:08:25.492Z,70.00
2022-11-29T07:10:55.632Z,69.90
2022-11-29T07:13:23.318Z,69.70
2022-11-29T07:16:08.855Z,69.80
2022-11-29T07:18:48.080Z,69.80
2022-11-29T07:21:27.243Z,69.70
2022-11-29T07:23:54.443Z,69.70
2022-11-29T07:26:39.362Z,69.70
2022-11-29T07:29:21.358Z,69.70
2022-11-29T07:31:59.899Z,69.60
2022-11-29T07:34:56.330Z,69.60
2022-11-29T07:37:41.409Z,69.70
2022-11-29T07:40:22.150Z,69.50
2022-11-29T07:43:23.634Z,69.30
2022-11-29T07:45:53.024Z,69.30
2022-11-29T07:48:23.001Z,69.40
2022-11-29T07:50:51.127Z,69.40
2022-11-29T07:53:20.771Z,69.60
2022-11-29T07:55:48.869Z,69.40
2022-11-29T07:58:17.502Z,69.40
2022-11-29T08:00:45.395Z,69.50
2022-11-29T08:03:12.908Z,69.30
2022-11-29T08:05:40.663Z,69.30
2022-11-29T08:08:07.864Z,69.30
2022-11-29T08:10:35.684Z,69.40
2022-11-29T08:13:03.184Z,69.20
2022-11-29T08:15:30.662Z,69.20
2022-11-29T08:17:57.619Z,69.20
2022-11-29T08:20:27.825Z,69.20
2022-11-29T08:23:03.435Z,69.20
2022-11-29T08:25:30.780Z,69.10
2022-11-29T08:27:57.937Z,69.10
2022-11-29T08:30:25.144Z,69.10
2022-11-29T08:32:52.863Z,69.10
2022-11-29T08:35:21.727Z,69.00
2022-11-29T08:37:49.466Z,69.00
2022-11-29T08:40:17.527Z,68.90
2022-11-29T08:42:44.753Z,69.00
2022-11-29T08:45:12.390Z,69.00
2022-11-29T08:47:41.949Z,69.00
2022-11-29T08:50:14.252Z,69.10
2022-11-29T08:53:03.819Z,69.00
2022-11-29T08:55:40.705Z,69.00
2022-11-29T08:58:10.958Z,68.90
2022-11-29T09:00:38.763Z,68.90
2022-11-29T09:03:26.393Z,68.70
2022-11-29T09:05:54.125Z,68.60
2022-11-29T09:08:21.379Z,68.40
2022-11-29T09:10:49.719Z,68.80
2022-11-29T09:13:18.220Z,68.20
2022-11-29T09:15:45.423Z,68.20
2022-11-29T09:18:13.165Z,68.10
2022-11-29T09:20:44.118Z,68.40
2022-11-29T09:23:12.073Z,68.30
2022-11-29T09:25:39.091Z,68.30
2022-11-29T09:28:06.218Z,68.40
2022-11-29T09:30:35.163Z,68.40
2022-11-29T09:33:04.473Z,68.60
2022-11-29T09:35:31.784Z,68.40
2022-11-29T09:37:59.207Z,68.30
2022-11-29T09:40:33.918Z,68.20
2022-11-29T09:43:22.513Z,67.80
2022-11-29T09:45:57.413Z,67.90
2022-11-29T09:48:57.579Z,67.80
2022-11-29T09:51:50.380Z,67.80
2022-11-29T09:54:32.383Z,68.00
2022-11-29T09:57:00.107Z,68.00
2022-11-29T09:59:42.952Z,68.00
2022-11-29T10:02:40.237Z,67.90
2022-11-29T10:05:14.197Z,67.90
2022-11-29T10:07:47.845Z,68.00
2022-11-29T10:10:32.646Z,68.00
2022-11-29T10:13:20.109Z,67.80
2022-11-29T10:15:51.916Z,67.70
2022-11-29T10:18:49.809Z,67.80
2022-11-29T10:21:21.857Z,67.90
2022-11-29T10:23:52.905Z,68.00
2022-11-29T10:26:22.512Z,67.80
2022-11-29T10:28:50.169Z,67.80
2022-11-29T10:31:32.829Z,68.00
2022-11-29T10:34:03.031Z,67.80
2022-11-29T10:36:44.552Z,67.80
2022-11-29T10:39:42.303Z,67.70
2022-11-29T10:42:47.586Z,67.60
2022-11-29T10:45:50.674Z,67.20
2022-11-29T10:48:20.606Z,67.30
2022-11-29T10:50:50.033Z,67.40
2022-11-29T10:53:20.279Z,67.20
2022-11-29T10:55:53.774Z,67.30
2022-11-29T10:58:28.210Z,67.40
2022-11-29T11:01:07.028Z,67.30
2022-11-29T11:03:44.117Z,67.10
2022-11-29T11:06:19.983Z,66.70
2022-11-29T11:08:56.205Z,66.70
2022-11-29T11:11:31.090Z,66.90
2022-11-29T11:14:23.234Z,67.40
2022-11-29T11:16:51.529Z,66.80
2022-11-29T11:19:33.644Z,66.50
2022-11-29T11:22:03.577Z,66.20
2022-11-29T11:24:38.555Z,66.20
2022-11-29T11:27:05.701Z,66.40
2022-11-29T11:29:38.625Z,66.50
2022-11-29T11:32:16.288Z,66.60
2022-11-29T11:34:59.221Z,66.30
2022-11-29T11:37:31.907Z,66.20
2022-11-29T11:40:26.068Z,66.10
2022-11-29T11:42:53.528Z,66.10
2022-11-29T11:45:27.621Z,66.00
2022-11-29T11:47:58.849Z,65.80
2022-11-29T11:50:35.083Z,65.90
2022-11-29T11:53:26.632Z,65.90
2022-11-29T11:56:12.778Z,66.10
2022-11-29T11:58:50.789Z,66.10
2022-11-29T12:01:38.238Z,66.30
2022-11-29T12:04:19.837Z,66.40
2022-11-29T12:06:50.013Z,66.20
2022-11-29T12:09:35.082Z,66.20
2022-11-29T12:12:17.795Z,66.10
2022-11-29T12:14:58.087Z,66.10
2022-11-29T12:17:34.981Z,65.90
2022-11-29T12:20:17.121Z,65.30
2022-11-29T12:23:19.561Z,65.40
2022-11-29T12:26:13.728Z,65.40
2022-11-29T12:28:47.040Z,65.40
2022-11-29T12:31:48.255Z,65.10
2022-11-29T12:34:52.771Z,65.30
2022-11-29T12:37:30.324Z,65.20
2022-11-29T12:40:05.125Z,65.40
2022-11-29T12:42:57.267Z,65.30
2022-11-29T12:45:33.506Z,65.10
2022-11-29T12:48:14.841Z,65.20
2022-11-29T12:51:10.851Z,65.30
2022-11-29T12:53:58.900Z,65.50
2022-11-29T12:57:11.419Z,65.60
2022-11-29T12:59:38.551Z,65.40
2022-11-29T13:02:21.364Z,65.20
2022-11-29T13:05:09.759Z,65.30
2022-11-29T13:07:58.806Z,65.30
2022-11-29T13:10:52.221Z,65.30
2022-11-29T13:13:22.063Z,65.40
2022-11-29T13:16:34.735Z,65.20
2022-11-29T13:19:23.183Z,65.20
2022-11-29T13:22:07.752Z,65.30
2022-11-29T13:24:46.285Z,65.20
2022-11-29T13:27:36.582Z,65.20
2022-11-29T13:30:05.659Z,65.30
2022-11-29T13:32:40.607Z,65.40
2022-11-29T13:35:35.243Z,65.20
2022-11-29T13:38:18.601Z,65.00
2022-11-29T13:40:48.893Z,65.30
2022-11-29T13:43:39.261Z,66.20
2022-11-29T13:46:28.236Z,65.40
2022-11-29T13:48:55.710Z,65.40
2022-11-29T13:51:34.685Z,65.50
2022-11-29T13:54:07.272Z,65.60
2022-11-29T13:56:46.339Z,65.60
2022-11-29T13:59:29.608Z,65.50
2022-11-29T14:01:58.758Z,65.50
2022-11-29T14:04:45.225Z,65.50
2022-11-29T14:07:19.630Z,65.60
2022-11-29T14:10:06.115Z,65.60
2022-11-29T14:12:37.329Z,65.40
2022-11-29T14:15:32.034Z,65.50
2022-11-29T14:18:03.426Z,65.50
2022-11-29T14:20:44.169Z,65.60
2022-11-29T14:23:32.737Z,65.60
2022-11-29T14:26:01.075Z,65.60
2022-11-29T14:28:30.065Z,65.60
2022-11-29T14:31:36.237Z,65.70
2022-11-29T14:34:15.034Z,65.70
2022-11-29T14:37:01.774Z,65.80
2022-11-29T14:39:47.040Z,65.90
2022-11-29T14:42:19.958Z,65.90
2022-11-29T14:44:52.793Z,65.90
2022-11-29T14:47:25.381Z,66.00
2022-11-29T14:49:56.136Z,65.90
2022-11-29T14:52:31.096Z,65.90
2022-11-29T14:55:02.924Z,65.90
2022-11-29T14:57:48.412Z,65.70
2022-11-29T15:00:39.698Z,65.60
2022-11-29T15:03:21.444Z,65.70
2022-11-29T15:05:58.120Z,65.60
2022-11-29T15:08:54.887Z,65.60
2022-11-29T15:12:04.232Z,65.60
2022-11-29T15:15:04.165Z,65.70
2022-11-29T15:17:37.922Z,65.50
2022-11-29T15:20:40.330Z,65.60
2022-11-29T15:23:14.831Z,65.70
2022-11-29T15:25:53.727Z,65.60
2022-11-29T15:28:28.938Z,65.60
2022-11-29T15:31:11.226Z,65.50
2022-11-29T15:33:41.804Z,65.50
2022-11-29T15:36:19.376Z,65.40
2022-11-29T15:38:56.590Z,65.40
2022-11-29T15:41:32.246Z,66.20
2022-11-29T15:44:05.846Z,65.20
2022-11-29T15:46:36.058Z,65.10
2022-11-29T15:49:24.338Z,65.30
2022-11-29T15:52:02.822Z,65.30
2022-11-29T15:54:32.125Z,65.40
2022-11-29T15:57:42.632Z,65.50
2022-11-29T16:00:21.665Z,65.60
2022-11-29T16:02:58.030Z,65.50
2022-11-29T16:05:33.260Z,65.50
2022-11-29T16:08:21.288Z,65.40
2022-11-29T16:10:53.081Z,65.40
2022-11-29T16:13:31.264Z,65.50
2022-11-29T16:16:19.552Z,65.50
2022-11-29T16:18:48.399Z,65.60
2022-11-29T16:21:32.638Z,65.70
2022-11-29T16:24:19.502Z,65.60
2022-11-29T16:26:48.321Z,65.70
2022-11-29T16:29:33.991Z,65.70
2022-11-29T16:32:15.103Z,65.60
2022-11-29T16:34:43.984Z,65.70
2022-11-29T16:37:39.672Z,65.70
2022-11-29T16:40:19.365Z,65.70
2022-11-29T16:43:07.652Z,65.80
2022-11-29T16:45:41.288Z,65.80
2022-11-29T16:48:30.612Z,65.80
2022-11-29T16:51:10.235Z,65.80
2022-11-29T16:53:40.174Z,65.90
2022-11-29T16:56:15.543Z,65.90
2022-11-29T16:59:21.081Z,65.80
2022-11-29T17:01:34.797Z,65.90
2022-11-29T17:04:01.929Z,65.70
2022-11-29T17:06:30.049Z,65.70
2022-11-29T17:08:59.073Z,65.60
2022-11-29T17:11:27.161Z,65.60
2022-11-29T17:13:56.851Z,65.70
2022-11-29T17:16:25.145Z,65.70
2022-11-29T17:18:53.038Z,65.60
2022-11-29T17:21:27.670Z,65.50
2022-11-29T17:23:55.227Z,65.40
2022-11-29T17:26:22.834Z,65.50
2022-11-29T17:28:52.045Z,65.60
2022-11-29T17:31:21.688Z,65.50
2022-11-29T17:33:48.804Z,65.50
2022-11-29T17:36:18.328Z,65.50
2022-11-29T17:38:45.802Z,65.50
2022-11-29T17:41:23.516Z,65.50
2022-11-29T17:43:52.132Z,65.40
2022-11-29T17:46:26.053Z,65.30
2022-11-29T17:48:54.411Z,65.30
2022-11-29T17:51:50.567Z,65.20
2022-11-29T17:54:11.196Z,65.30
2022-11-29T17:56:38.326Z,65.40
2022-11-29T17:59:05.880Z,65.40
2022-11-29T18:01:34.920Z,65.50
2022-11-29T18:04:04.429Z,65.40
2022-11-29T18:06:36.227Z,65.40
2022-11-29T18:09:04.728Z,65.30
2022-11-29T18:11:42.975Z,65.20
2022-11-29T18:14:16.511Z,65.10
2022-11-29T18:16:45.638Z,65.00
2022-11-29T18:19:16.174Z,65.10
2022-11-29T18:21:44.752Z,65.10
2022-11-29T18:24:12.130Z,64.90
2022-11-29T18:26:39.682Z,65.00
2022-11-29T18:29:08.605Z,64.80
2022-11-29T18:31:38.562Z,64.90
2022-11-29T18:34:09.674Z,64.80
2022-11-29T18:36:45.285Z,64.80
2022-11-29T18:39:18.136Z,64.80
2022-11-29T18:41:48.349Z,64.90
2022-11-29T18:44:17.476Z,64.80
2022-11-29T18:46:45.439Z,64.70
2022-11-29T18:49:16.055Z,64.70
2022-11-29T18:51:45.047Z,64.60
2022-11-29T18:54:14.148Z,64.70
2022-11-29T18:56:43.541Z,64.70
2022-11-29T18:59:17.328Z,64.80
2022-11-29T19:01:48.440Z,64.80
2022-11-29T19:04:20.914Z,65.00
2022-11-29T19:06:49.001Z,64.90
2022-11-29T19:09:22.397Z,64.90
2022-11-29T19:11:50.138Z,64.80
2022-11-29T19:14:19.171Z,64.90
2022-11-29T19:16:48.741Z,64.90
2022-11-29T19:19:16.011Z,64.80
2022-11-29T19:21:43.249Z,64.70
2022-11-29T19:24:15.940Z,64.80
2022-11-29T19:26:45.471Z,64.90
2022-11-29T19:29:13.972Z,64.90
2022-11-29T19:31:41.729Z,64.80
2022-11-29T19:34:09.119Z,64.80
2022-11-29T19:36:42.971Z,64.90
2022-11-29T19:39:13.003Z,64.90
2022-11-29T19:41:43.134Z,64.80
2022-11-29T19:44:10.786Z,64.80
2022-11-29T19:46:43.999Z,64.80
2022-11-29T19:49:11.679Z,64.60
2022-11-29T19:51:39.735Z,64.80
2022-11-29T19:54:09.653Z,64.80
2022-11-29T19:56:38.219Z,64.80
2022-11-29T19:59:07.652Z,64.80
2022-11-29T20:01:40.943Z,64.90
2022-11-29T20:04:10.393Z,64.90
2022-11-29T20:06:37.770Z,64.80
2022-11-29T20:09:04.977Z,64.90
2022-11-29T20:11:33.136Z,64.70
2022-11-29T20:14:01.828Z,64.50
2022-11-29T20:16:30.778Z,64.40
2022-11-29T20:18:59.506Z,64.30
2022-11-29T20:21:32.670Z,64.30
2022-11-29T20:24:03.041Z,64.20
2022-11-29T20:26:33.041Z,64.40
2022-11-29T20:29:01.826Z,64.40
2022-11-29T20:31:29.570Z,64.40
2022-11-29T20:34:00.327Z,64.40
2022-11-29T20:36:33.781Z,64.50
2022-11-29T20:39:28.747Z,64.50
2022-11-29T20:42:32.549Z,64.50
2022-11-29T20:45:02.623Z,64.50
2022-11-29T20:48:05.839Z,64.50
2022-11-29T20:50:33.156Z,64.30
2022-11-29T20:53:06.476Z,64.30
2022-11-29T20:55:33.719Z,64.30
2022-11-29T20:58:00.721Z,64.20
2022-11-29T21:00:27.855Z,64.10
2022-11-29T21:02:55.056Z,63.80
2022-11-29T21:05:22.196Z,63.60
2022-11-29T21:07:49.295Z,63.50
2022-11-29T21:10:16.570Z,63.50
2022-11-29T21:12:45.771Z,63.50
2022-11-29T21:15:14.280Z,63.30
2022-11-29T21:17:42.458Z,63.50
2022-11-29T21:20:18.133Z,63.10
2022-11-29T21:23:11.572Z,63.40
2022-11-29T21:26:02.504Z,63.50
2022-11-29T21:28:35.913Z,63.30
2022-11-29T21:31:03.513Z,63.40
2022-11-29T21:33:30.836Z,63.40
2022-11-29T21:35:58.931Z,63.60
2022-11-29T21:38:28.828Z,63.50
2022-11-29T21:40:57.565Z,63.40
2022-11-29T21:43:50.237Z,63.30
2022-11-29T21:46:12.968Z,63.40
2022-11-29T21:48:42.397Z,63.30
2022-11-29T21:51:10.958Z,63.30
2022-11-29T21:53:39.633Z,63.20
2022-11-29T21:56:09.446Z,62.80
2022-11-29T21:58:39.354Z,63.10
2022-11-29T22:01:16.089Z,63.20
2022-11-29T22:03:43.647Z,63.40
2022-11-29T22:06:20.385Z,63.30
2022-11-29T22:08:48.752Z,63.30
2022-11-29T22:11:31.122Z,63.20
2022-11-29T22:14:15.902Z,63.30
2022-11-29T22:16:51.846Z,63.30
2022-11-29T22:19:23.054Z,63.20
2022-11-29T22:21:52.674Z,62.70
2022-11-29T22:24:22.437Z,63.00
2022-11-29T22:26:51.478Z,62.90
2022-11-29T22:29:18.991Z,63.10
2022-11-29T22:31:47.741Z,63.20
2022-11-29T22:34:14.874Z,62.90
2022-11-29T22:36:41.985Z,62.80
2022-11-29T22:39:09.848Z,62.90
2022-11-29T22:41:38.204Z,62.90
2022-11-29T22:44:06.035Z,63.10
2022-11-29T22:46:35.521Z,63.20
2022-11-29T22:49:03.303Z,63.10
2022-11-29T22:51:32.545Z,63.00
2022-11-29T22:54:02.424Z,63.10
2022-11-29T22:56:35.268Z,63.20
2022-11-29T22:59:02.534Z,63.20
2022-11-29T23:01:31.444Z,63.10
2022-11-29T23:04:00.635Z,63.20
2022-11-29T23:06:33.810Z,62.90
2022-11-29T23:09:12.017Z,62.80
2022-11-29T23:11:39.675Z,62.90
2022-11-29T23:14:06.853Z,62.80
2022-11-29T23:16:34.784Z,62.90
2022-11-29T23:19:02.611Z,62.90
2022-11-29T23:21:32.301Z,63.00
2022-11-29T23:24:02.717Z,63.10
2022-11-29T23:26:36.454Z,62.90
2022-11-29T23:29:05.796Z,62.90
2022-11-29T23:31:34.055Z,62.70
2022-11-29T23:34:02.459Z,62.90
2022-11-29T23:36:29.791Z,62.80
2022-11-29T23:38:56.973Z,62.90
2022-11-29T23:41:24.065Z,62.60
2022-11-29T23:43:50.994Z,62.70
2022-11-29T23:46:22.077Z,62.80
2022-11-29T23:48:49.833Z,62.80
2022-11-29T23:51:17.396Z,62.90
2022-11-29T23:53:44.950Z,62.90
2022-11-29T23:56:16.715Z,62.80
2022-11-29T23:58:44.609Z,62.70
